Time;durP1;ratioP1;P1;durP2;ratioP2;P2;SDS_P1;SDS_P2;PMS_P1;PMS_P2;Temp;Humidity;BMP_temperature;BMP_pressure;BME280_temperature;BME280_humidity;BME280_pressure;Samples;Min_cycle;Max_cycle;Signal;HPM_P1;HPM_P2
2023/05/05 00:02:02;;;;;;;10.55;5.57;;;6.50;99.90;;;6.50;100.00;100990.88;5066236;28;20045;-76
2023/05/05 00:04:28;;;;;;;10.93;5.70;;;6.50;99.90;;;6.44;100.00;100989.72;5070089;28;20092;-76
2023/05/05 00:06:54;;;;;;;9.52;5.60;;;6.50;99.90;;;6.37;100.00;100993.31;5069806;28;20036;-76
2023/05/05 00:09:21;;;;;;;9.23;5.60;;;6.40;99.90;;;6.38;100.00;101005.84;5070135;28;20484;-76
2023/05/05 00:11:47;;;;;;;11.85;6.55;;;6.40;99.90;;;6.31;100.00;100997.59;5070706;28;20087;-76
2023/05/05 00:14:12;;;;;;;7.03;5.32;;;6.30;99.90;;;6.32;100.00;101000.13;5069253;28;20028;-76
2023/05/05 00:16:38;;;;;;;8.57;5.93;;;6.30;99.90;;;6.32;100.00;101004.69;5052149;28;20510;-76
2023/05/05 00:19:05;;;;;;;9.77;6.22;;;6.30;99.90;;;6.30;100.00;101004.03;5052387;28;20032;-76
2023/05/05 00:21:31;;;;;;;11.55;6.18;;;6.30;99.90;;;6.35;100.00;101003.50;5070154;28;20036;-76
2023/05/05 00:23:56;;;;;;;9.07;6.05;;;6.30;99.90;;;6.32;100.00;100997.44;5069745;28;20126;-76
2023/05/05 00:26:23;;;;;;;11.85;6.15;;;6.30;99.90;;;6.37;100.00;100996.91;5063438;28;20036;-76
2023/05/05 00:28:51;;;;;;;10.38;6.40;;;6.30;99.90;;;6.37;100.00;100994.19;5067751;28;20048;-76
2023/05/05 00:31:17;;;;;;;12.48;7.00;;;6.30;99.90;;;6.31;100.00;100994.88;5086145;28;21052;-75
2023/05/05 00:33:43;;;;;;;9.43;6.55;;;6.30;99.90;;;6.28;100.00;100990.69;5080178;28;20036;-77
2023/05/05 00:36:08;;;;;;;10.02;6.25;;;6.30;99.90;;;6.32;100.00;100991.16;5074897;28;20039;-77
2023/05/05 00:38:34;;;;;;;13.48;6.82;;;6.30;99.90;;;6.28;100.00;100987.13;5071429;28;20035;-76
2023/05/05 00:41:00;;;;;;;10.30;6.28;;;6.30;99.90;;;6.37;100.00;100988.75;5074057;28;20062;-76
2023/05/05 00:43:26;;;;;;;14.10;7.28;;;6.30;99.90;;;6.40;100.00;100987.53;5052950;28;20036;-76
2023/05/05 00:46:02;;;;;;;11.60;6.65;;;6.40;99.90;;;6.39;100.00;100977.72;5055201;28;20550;-76
2023/05/05 00:48:30;;;;;;;12.88;6.95;;;6.40;99.90;;;6.31;100.00;100981.34;5081898;28;20024;-76
2023/05/05 00:50:57;;;;;;;12.20;6.90;;;6.30;99.90;;;6.37;100.00;100986.06;5065913;28;20060;-76
2023/05/05 00:53:26;;;;;;;10.65;6.57;;;6.40;99.90;;;6.35;100.00;100977.22;5084631;28;20079;-76
2023/05/05 00:55:52;;;;;;;11.70;6.85;;;6.30;99.90;;;6.75;100.00;100983.34;5068581;28;20035;-76
2023/05/05 00:58:18;;;;;;;11.02;6.53;;;6.30;99.90;;;6.93;100.00;100976.75;5072247;28;20118;-76
2023/05/05 01:00:44;;;;;;;11.95;6.78;;;6.30;99.90;;;6.85;100.00;100957.84;5069160;28;20025;-76
2023/05/05 01:03:11;;;;;;;10.65;7.15;;;6.20;99.90;;;6.85;100.00;100958.69;5071031;28;20101;-76
2023/05/05 01:05:58;;;;;;;9.90;6.93;;;6.10;99.90;;;6.83;100.00;100965.31;5068956;28;20045;-76
2023/05/05 01:08:54;;;;;;;11.63;7.15;;;6.10;99.90;;;6.78;100.00;100962.31;5074027;28;20029;-76
2023/05/05 01:11:34;;;;;;;9.70;6.68;;;6.10;99.90;;;6.58;100.00;100955.56;5041690;28;20432;-76
2023/05/05 01:14:19;;;;;;;13.43;6.78;;;6.00;99.90;;;6.55;100.00;100952.34;5051897;28;20072;-76
2023/05/05 01:16:59;;;;;;;10.48;7.32;;;6.00;99.90;;;6.54;100.00;100953.38;5054024;28;20460;-76
2023/05/05 01:20:00;;;;;;;12.35;7.47;;;6.10;99.90;;;6.58;100.00;100957.41;5069490;28;20127;-76
2023/05/05 01:22:35;;;;;;;10.48;7.30;;;6.10;99.90;;;6.59;100.00;100948.25;5067033;28;20185;-76
2023/05/05 01:25:32;;;;;;;12.55;7.32;;;6.10;99.90;;;6.74;100.00;100957.28;5068514;28;20075;-76
2023/05/05 01:28:49;;;;;;;12.45;7.38;;;6.10;99.90;;;6.71;100.00;100946.78;5071890;28;20048;-76
2023/05/05 01:31:50;;;;;;;13.45;7.63;;;6.10;99.90;;;6.73;100.00;100950.16;5068601;28;20056;-76
2023/05/05 01:34:26;;;;;;;13.20;7.35;;;6.00;99.90;;;6.70;100.00;100939.69;5067904;28;20103;-76
2023/05/05 01:37:21;;;;;;;12.13;7.28;;;6.00;99.90;;;6.75;100.00;100948.09;5066469;28;20062;-76
2023/05/05 01:39:53;;;;;;;12.40;8.05;;;6.10;99.90;;;6.68;100.00;100944.47;5077902;28;20028;-76
2023/05/05 01:42:21;;;;;;;14.13;8.13;;;6.10;99.90;;;6.74;100.00;100946.41;5075842;28;20090;-76
2023/05/05 01:44:48;;;;;;;13.35;8.10;;;6.20;99.90;;;6.78;100.00;100946.91;5074829;28;20067;-76
2023/05/05 01:47:20;;;;;;;13.57;7.60;;;6.30;99.90;;;6.85;100.00;100947.00;5076076;28;20058;-76
2023/05/05 01:49:48;;;;;;;14.60;8.20;;;6.40;99.90;;;7.02;100.00;100942.22;5079272;28;20055;-76
2023/05/05 01:52:15;;;;;;;15.45;7.50;;;6.40;99.90;;;6.89;100.00;100940.16;5084148;28;20426;-76
2023/05/05 01:54:44;;;;;;;13.95;7.63;;;6.40;99.90;;;6.87;100.00;100940.38;5078658;28;20119;-76
2023/05/05 01:57:12;;;;;;;13.43;7.85;;;6.40;99.90;;;6.90;100.00;100939.16;5068660;28;20048;-74
2023/05/05 01:59:38;;;;;;;11.57;7.50;;;6.40;99.90;;;6.84;100.00;100919.03;5075476;28;20089;-74
2023/05/05 02:02:09;;;;;;;13.93;8.30;;;6.40;99.90;;;6.97;100.00;100931.97;5080043;28;20094;-75
2023/05/05 02:04:40;;;;;;;15.30;8.35;;;6.50;99.90;;;6.95;100.00;100931.31;5083614;28;20039;-75
2023/05/05 02:07:09;;;;;;;12.55;8.15;;;6.50;99.90;;;6.97;100.00;100928.38;5074225;28;20032;-75
2023/05/05 02:09:36;;;;;;;10.85;7.30;;;6.50;99.90;;;7.03;100.00;100927.66;5062977;28;20028;-75
2023/05/05 02:12:04;;;;;;;12.83;8.43;;;6.60;99.90;;;7.01;100.00;100929.69;5075131;28;20040;-76
2023/05/05 02:14:32;;;;;;;13.98;7.95;;;6.70;99.90;;;7.00;100.00;100928.88;5065666;28;20036;-75
2023/05/05 02:17:00;;;;;;;10.57;7.73;;;6.70;99.90;;;6.97;100.00;100926.53;5078509;28;20035;-75
2023/05/05 02:19:35;;;;;;;12.65;7.55;;;6.70;99.90;;;7.02;100.00;100936.81;5073780;28;20398;-75
2023/05/05 02:22:01;;;;;;;10.93;6.90;;;6.70;99.90;;;6.96;100.00;100930.28;5072499;28;20070;-75
2023/05/05 02:24:27;;;;;;;14.35;8.05;;;6.70;99.90;;;6.94;100.00;100934.19;5081369;28;20114;-75
2023/05/05 02:26:56;;;;;;;12.00;7.38;;;6.60;99.90;;;6.82;100.00;100915.69;5088753;28;20066;-75
2023/05/05 02:29:49;;;;;;;12.02;7.38;;;6.60;99.90;;;6.95;100.00;100938.59;5074432;28;20044;-75
2023/05/05 02:32:33;;;;;;;15.02;7.32;;;6.50;99.90;;;6.84;100.00;100923.59;5090898;28;20419;-76
2023/05/05 02:35:17;;;;;;;12.82;7.63;;;6.50;99.90;;;6.78;100.00;100925.22;5070123;28;20132;-75
2023/05/05 02:37:53;;;;;;;11.45;7.57;;;6.40;99.90;;;6.79;100.00;100926.91;5056548;28;20029;-75
2023/05/05 02:40:25;;;;;;;12.18;7.22;;;6.30;99.90;;;6.71;100.00;100922.38;5082895;28;20048;-75
2023/05/05 02:42:56;;;;;;;12.63;6.95;;;6.30;99.90;;;6.70;100.00;100918.00;5071236;28;20032;-75
2023/05/05 02:45:28;;;;;;;11.25;6.85;;;6.20;99.90;;;6.57;100.00;100901.50;5072706;28;20053;-75
2023/05/05 02:47:53;;;;;;;11.77;7.32;;;6.20;99.90;;;6.69;100.00;100929.88;5078811;28;20114;-75
2023/05/05 02:50:21;;;;;;;14.57;8.10;;;6.20;99.90;;;6.68;100.00;100919.19;5067887;28;20097;-75
2023/05/05 02:53:00;;;;;;;13.18;7.70;;;6.20;99.90;;;6.55;100.00;100907.13;5080027;28;20479;-75
2023/05/05 02:55:52;;;;;;;13.95;7.57;;;6.20;99.90;;;6.61;100.00;100928.06;5070779;28;20042;-75
2023/05/05 02:58:31;;;;;;;11.73;6.93;;;6.20;99.90;;;6.57;100.00;100923.19;5074414;28;20028;-75
2023/05/05 03:01:34;;;;;;;15.57;8.55;;;6.10;99.90;;;6.53;100.00;100927.28;5056303;28;20042;-75
2023/05/05 03:04:14;;;;;;;13.32;7.45;;;6.10;99.90;;;6.47;100.00;100909.88;5068559;28;20071;-75
2023/05/05 03:06:52;;;;;;;13.57;7.55;;;6.10;99.90;;;6.38;100.00;100924.53;5073986;28;20506;-75
2023/05/05 03:09:44;;;;;;;13.88;7.43;;;6.00;99.90;;;6.33;100.00;100925.09;5073468;28;20107;-76
2023/05/05 03:12:19;;;;;;;12.70;7.55;;;5.90;99.90;;;6.31;100.00;100919.00;5056015;28;20134;-75
2023/05/05 03:14:57;;;;;;;13.77;7.53;;;5.90;99.90;;;6.30;100.00;100915.47;5070685;28;20512;-75
2023/05/05 03:17:24;;;;;;;12.00;7.60;;;5.80;99.90;;;6.28;100.00;100913.97;5073759;28;20126;-75
2023/05/05 03:19:51;;;;;;;15.57;7.50;;;5.80;99.90;;;6.26;100.00;100921.44;5077320;28;20025;-75
2023/05/05 03:22:18;;;;;;;13.27;7.72;;;5.80;99.90;;;6.22;100.00;100917.41;5073355;28;20101;-75
2023/05/05 03:24:50;;;;;;;12.73;7.85;;;5.80;99.90;;;6.21;100.00;100918.44;5073789;28;20035;-75
2023/05/05 03:27:19;;;;;;;12.40;7.78;;;5.80;99.90;;;6.30;100.00;100911.91;5088377;28;20089;-75
2023/05/05 03:29:45;;;;;;;14.07;8.70;;;5.70;99.90;;;6.37;100.00;100893.06;5081627;28;20130;-75
2023/05/05 03:32:13;;;;;;;11.82;7.72;;;5.70;99.90;;;6.49;100.00;100915.97;5080887;28;20035;-75
2023/05/05 03:34:40;;;;;;;12.10;8.07;;;5.70;99.90;;;6.40;100.00;100911.66;5089141;28;20055;-75
2023/05/05 03:37:06;;;;;;;14.23;8.20;;;5.70;99.90;;;6.26;100.00;100914.16;5077090;28;20484;-75
2023/05/05 03:39:32;;;;;;;12.77;7.93;;;5.60;99.90;;;6.23;100.00;100916.38;5047889;28;20043;-76
2023/05/05 03:41:58;;;;;;;17.13;8.15;;;5.60;99.90;;;6.17;100.00;100909.81;5070242;28;20055;-75
2023/05/05 03:44:28;;;;;;;11.43;7.57;;;5.60;99.90;;;6.13;100.00;100911.19;5068695;28;20388;-75
2023/05/05 03:46:53;;;;;;;12.45;7.97;;;5.60;99.90;;;6.16;100.00;100919.81;5070915;28;20035;-75
2023/05/05 03:49:19;;;;;;;14.30;7.40;;;5.50;99.90;;;6.18;100.00;100915.06;5070785;28;20069;-76
2023/05/05 03:51:47;;;;;;;15.35;8.43;;;5.50;99.90;;;6.05;100.00;100895.84;5067458;28;20035;-76
2023/05/05 03:54:13;;;;;;;14.98;8.05;;;5.50;99.90;;;6.04;100.00;100902.28;5082593;28;20044;-76
2023/05/05 03:56:40;;;;;;;13.50;8.30;;;5.50;99.90;;;6.06;100.00;100904.81;5086320;28;20180;-75
2023/05/05 03:59:05;;;;;;;13.73;7.43;;;5.50;99.90;;;6.18;100.00;100919.63;5089089;28;20448;-75
2023/05/05 04:01:31;;;;;;;12.32;7.72;;;5.50;99.90;;;6.02;100.00;100920.59;5071585;28;20047;-75
2023/05/05 04:03:58;;;;;;;13.95;8.55;;;5.40;99.90;;;5.95;100.00;100903.34;5071915;28;20032;-75
2023/05/05 04:06:25;;;;;;;14.07;7.50;;;5.30;99.90;;;6.00;100.00;100914.47;5077078;28;20047;-75
2023/05/05 04:08:51;;;;;;;11.35;7.50;;;5.30;99.90;;;5.99;100.00;100910.06;5068731;28;20071;-75
2023/05/05 04:11:16;;;;;;;17.90;9.13;;;5.30;99.90;;;5.99;100.00;100901.97;5071955;28;20072;-75
2023/05/05 04:13:42;;;;;;;14.80;8.77;;;5.30;99.90;;;5.99;100.00;100901.97;5071997;28;20040;-74
2023/05/05 04:16:08;;;;;;;17.45;8.63;;;5.40;99.90;;;6.04;100.00;100910.41;5071206;28;20041;-75
2023/05/05 04:18:36;;;;;;;15.65;8.73;;;5.40;99.90;;;6.15;100.00;100904.59;5087956;28;20035;-75
2023/05/05 04:21:03;;;;;;;20.70;9.63;;;5.50;99.90;;;6.33;100.00;100908.81;5065642;28;20429;-75
2023/05/05 04:23:29;;;;;;;17.40;9.43;;;5.50;99.90;;;6.33;100.00;100906.13;5065865;28;20025;-75
2023/05/05 04:25:54;;;;;;;18.77;9.98;;;5.60;99.90;;;6.46;100.00;100925.31;5071487;28;20074;-74
2023/05/05 04:28:20;;;;;;;19.63;8.75;;;5.60;99.90;;;6.44;100.00;100929.22;5072398;28;20063;-75
2023/05/05 04:30:46;;;;;;;14.57;9.02;;;5.70;99.90;;;6.39;100.00;100932.50;5071825;28;20043;-74
2023/05/05 04:33:12;;;;;;;17.20;10.18;;;5.70;99.90;;;6.44;100.00;100929.22;5068898;28;20095;-74
2023/05/05 04:35:38;;;;;;;14.38;9.40;;;5.80;99.90;;;6.51;100.00;100937.47;5060485;28;20484;-74
2023/05/05 04:38:03;;;;;;;14.48;8.52;;;5.80;99.90;;;6.54;100.00;100939.81;5035196;28;20036;-74
2023/05/05 04:40:30;;;;;;;16.17;9.50;;;5.90;99.90;;;6.55;100.00;100933.38;5087799;28;20032;-74
2023/05/05 04:42:57;;;;;;;18.60;9.52;;;5.90;99.90;;;6.67;100.00;100931.94;5054291;28;20028;-74
2023/05/05 04:45:23;;;;;;;17.77;9.90;;;6.00;99.90;;;6.74;100.00;100938.28;5071880;28;20095;-74
2023/05/05 04:47:48;;;;;;;19.42;9.40;;;6.10;99.90;;;6.83;100.00;100925.50;5070446;28;20036;-75
2023/05/05 04:50:15;;;;;;;17.17;8.95;;;6.20;99.90;;;6.99;100.00;100923.63;5074878;28;20491;-75
2023/05/05 04:52:41;;;;;;;16.98;9.77;;;6.30;99.90;;;7.09;100.00;100915.22;5064943;28;20032;-75
2023/05/05 04:55:09;;;;;;;15.27;9.90;;;6.50;99.90;;;7.19;100.00;100932.91;5075665;28;20388;-75
2023/05/05 04:57:35;;;;;;;15.82;8.75;;;6.70;99.90;;;7.31;100.00;100930.56;5068677;28;20039;-74
2023/05/05 05:00:03;;;;;;;20.00;9.63;;;6.80;99.90;;;7.49;100.00;100924.72;5066923;28;20040;-75
2023/05/05 05:02:29;;;;;;;15.73;9.25;;;7.00;99.90;;;7.75;100.00;100922.53;5071982;28;20036;-75
2023/05/05 05:04:54;;;;;;;16.95;9.35;;;7.20;99.90;;;8.06;100.00;100940.41;5071263;28;20035;-75
2023/05/05 05:07:20;;;;;;;13.55;8.95;;;7.40;99.90;;;8.34;100.00;100928.78;5072320;28;20044;-75
2023/05/05 05:09:46;;;;;;;14.57;8.55;;;7.70;99.90;;;8.69;100.00;100918.00;5071764;28;20051;-74
2023/05/05 05:12:12;;;;;;;15.43;8.48;;;8.00;99.90;;;8.91;100.00;100907.06;5051644;28;20036;-75
2023/05/05 05:14:39;;;;;;;15.55;7.68;;;8.40;99.90;;;9.27;100.00;100916.88;5055783;28;20127;-74
2023/05/05 05:17:05;;;;;;;13.80;7.43;;;8.70;99.90;;;9.81;100.00;100900.75;5092406;28;20028;-75
2023/05/05 05:19:32;;;;;;;16.80;7.78;;;9.00;99.90;;;10.06;100.00;100892.00;5075841;28;20036;-75
2023/05/05 05:21:58;;;;;;;10.48;6.30;;;9.40;99.90;;;10.21;100.00;100883.63;5083961;28;20093;-74
2023/05/05 05:24:25;;;;;;;12.95;6.63;;;9.70;99.90;;;10.43;100.00;100870.66;5075552;28;20059;-75
2023/05/05 05:26:51;;;;;;;11.05;6.43;;;10.00;99.90;;;10.72;100.00;100879.47;5074530;28;20465;-75
2023/05/05 05:29:19;;;;;;;11.07;6.03;;;10.30;99.90;;;10.92;100.00;100882.13;5068101;28;20051;-75
2023/05/05 05:31:45;;;;;;;14.55;5.90;;;10.60;99.90;;;11.04;100.00;100867.84;5073992;28;20043;-75
2023/05/05 05:34:11;;;;;;;10.02;6.10;;;10.80;99.90;;;11.26;98.36;100882.06;5072371;28;20122;-75
2023/05/05 05:36:37;;;;;;;11.65;5.70;;;10.90;99.90;;;11.27;97.19;100885.59;5068254;28;20040;-75
2023/05/05 05:39:03;;;;;;;9.65;5.93;;;11.00;99.90;;;11.32;94.21;100867.53;5073023;28;20040;-75
2023/05/05 05:41:29;;;;;;;10.60;5.50;;;11.10;99.90;;;11.39;93.66;100869.38;5088367;28;20035;-75
2023/05/05 05:43:55;;;;;;;10.38;5.78;;;11.10;99.90;;;11.40;93.08;100863.72;5068816;28;20364;-75
2023/05/05 05:46:22;;;;;;;12.23;5.70;;;11.20;99.90;;;11.44;93.66;100870.41;5073018;28;20052;-75
2023/05/05 05:48:48;;;;;;;11.05;5.82;;;11.20;99.90;;;11.45;93.72;100876.72;5069886;28;20354;-75
2023/05/05 05:51:13;;;;;;;10.07;6.43;;;11.20;99.90;;;11.35;92.19;100869.00;5067021;28;20042;-76
2023/05/05 05:53:40;;;;;;;11.48;6.05;;;11.30;99.90;;;11.55;90.42;100871.63;5074891;28;20127;-75
2023/05/05 05:56:08;;;;;;;11.65;6.20;;;11.30;99.90;;;11.54;89.21;100864.50;5074953;28;20032;-76
2023/05/05 05:58:34;;;;;;;12.02;5.85;;;11.30;99.90;;;11.56;88.93;100873.31;5058272;28;20032;-75
2023/05/05 06:01:01;;;;;;;9.00;5.50;;;11.30;99.90;;;11.49;86.64;100864.31;5073140;28;20084;-75
2023/05/05 06:03:27;;;;;;;10.02;5.75;;;11.40;99.90;;;11.71;85.44;100869.47;5069250;28;20028;-75
2023/05/05 06:05:53;;;;;;;9.60;5.30;;;11.50;99.90;;;12.02;85.13;100878.75;5085960;28;20048;-75
2023/05/05 06:08:19;;;;;;;9.60;5.30;;;11.70;99.90;;;12.20;82.68;100870.63;5052677;28;20114;-76
2023/05/05 06:10:50;;;;;;;10.30;5.40;;;11.90;99.90;;;12.23;80.99;100859.25;5068349;28;20460;-75
2023/05/05 06:13:18;;;;;;;7.80;5.63;;;12.10;99.90;;;12.23;79.63;100856.50;5074923;28;20028;-75
2023/05/05 06:15:47;;;;;;;11.90;5.57;;;12.30;99.90;;;12.50;79.05;100871.84;5074920;28;20028;-75
2023/05/05 06:18:13;;;;;;;9.80;5.10;;;12.50;99.90;;;12.86;77.06;100858.44;5073872;28;20182;-76
2023/05/05 06:20:40;;;;;;;11.40;5.72;;;12.80;99.90;;;13.07;74.84;100870.84;5078223;28;20020;-76
2023/05/05 06:23:06;;;;;;;11.43;5.75;;;13.00;99.90;;;13.29;75.03;100876.72;5082598;28;20032;-76
2023/05/05 06:25:35;;;;;;;10.77;5.75;;;13.30;99.90;;;13.45;72.32;100866.22;5055920;28;21536;-76
2023/05/05 06:28:01;;;;;;;12.38;5.38;;;13.50;99.90;;;13.79;73.26;100883.88;5074997;28;20056;-76
2023/05/05 06:30:27;;;;;;;10.93;5.32;;;13.70;99.90;;;13.56;70.16;100870.94;5072016;28;20498;-75
2023/05/05 06:32:53;;;;;;;9.65;5.60;;;13.70;99.90;;;13.34;68.86;100876.88;5074686;28;20364;-76
2023/05/05 06:35:19;;;;;;;10.27;5.65;;;13.60;99.90;;;13.49;71.09;100875.63;5073458;28;20090;-75
2023/05/05 06:37:45;;;;;;;10.30;5.47;;;13.60;99.90;;;13.79;73.19;100878.41;5085924;28;20032;-74
2023/05/05 06:40:11;;;;;;;10.05;6.15;;;13.70;99.90;;;13.98;70.37;100883.00;5082906;28;20039;-75
2023/05/05 06:42:37;;;;;;;12.70;5.85;;;13.90;99.90;;;13.66;69.26;100882.16;5081034;28;20032;-76
2023/05/05 06:45:07;;;;;;;10.10;5.90;;;13.80;99.90;;;13.43;70.07;100879.31;5072611;28;20031;-76
2023/05/05 06:47:33;;;;;;;9.10;5.28;;;13.60;99.90;;;13.27;68.98;100880.75;5086861;28;20044;-77
2023/05/05 06:49:58;;;;;;;10.32;5.88;;;13.40;99.90;;;13.14;69.78;100870.78;5074797;28;20029;-76
2023/05/05 06:52:25;;;;;;;10.43;5.80;;;13.30;99.90;;;13.19;69.43;100868.19;5078275;28;20048;-76
2023/05/05 06:54:50;;;;;;;14.00;6.20;;;13.30;99.90;;;13.43;71.72;100873.84;5068365;28;20039;-76
2023/05/05 06:57:16;;;;;;;10.32;5.85;;;13.40;99.90;;;13.24;69.52;100873.81;5056613;28;20440;-76
2023/05/05 06:59:42;;;;;;;14.80;5.88;;;13.40;99.90;;;13.24;70.35;100871.91;5068686;28;20032;-76
2023/05/05 07:02:08;;;;;;;12.05;6.55;;;13.40;99.90;;;13.26;69.81;100874.44;5078306;28;20341;-76
2023/05/05 07:04:33;;;;;;;10.43;6.00;;;13.40;99.90;;;13.40;70.86;100877.00;5083188;28;20040;-76
2023/05/05 07:06:59;;;;;;;11.05;6.28;;;13.40;99.90;;;13.48;69.84;100882.19;5084160;28;20426;-76
2023/05/05 07:09:25;;;;;;;12.18;6.20;;;13.50;99.90;;;13.54;71.04;100873.06;5060134;28;20098;-76
2023/05/05 07:11:51;;;;;;;9.27;5.93;;;13.60;99.90;;;13.63;71.64;100863.44;5061275;28;20090;-76
2023/05/05 07:14:16;;;;;;;10.77;6.28;;;13.70;99.90;;;13.70;69.62;100871.59;5073900;28;20048;-76
2023/05/05 07:16:42;;;;;;;10.27;6.00;;;13.80;99.90;;;14.05;71.13;100878.22;5073586;28;20041;-75
2023/05/05 07:19:08;;;;;;;12.88;6.50;;;13.90;99.90;;;14.15;70.25;100874.91;5080663;28;20036;-75
2023/05/05 07:21:35;;;;;;;11.73;6.13;;;14.00;99.90;;;14.07;69.86;100867.88;5068156;28;20063;-76
2023/05/05 07:24:02;;;;;;;13.82;6.50;;;14.00;99.90;;;13.93;68.83;100870.00;5071490;28;20096;-76
2023/05/05 07:26:28;;;;;;;14.10;6.10;;;13.90;99.90;;;13.79;69.09;100874.81;5083621;28;20040;-76
2023/05/05 07:28:56;;;;;;;12.38;6.25;;;13.80;99.90;;;14.06;71.26;100882.69;5086702;28;20411;-75
2023/05/05 07:31:22;;;;;;;9.80;6.15;;;13.90;99.90;;;14.22;70.43;100876.50;5071024;28;20042;-76
2023/05/05 07:33:48;;;;;;;10.57;6.43;;;14.00;99.90;;;14.38;70.11;100872.22;5075429;28;20029;-76
2023/05/05 07:36:18;;;;;;;15.35;6.30;;;14.30;99.90;;;14.86;68.39;100875.00;5070477;28;20503;-77
2023/05/05 07:38:44;;;;;;;11.90;6.18;;;14.60;99.90;;;15.31;65.19;100869.94;5082292;28;20059;-76
2023/05/05 07:41:12;;;;;;;9.70;5.90;;;15.10;99.90;;;15.49;62.67;100869.72;5070562;28;20047;-77
2023/05/05 07:43:41;;;;;;;12.68;6.57;;;15.40;99.90;;;15.69;62.91;100865.72;5076310;28;20036;-77
2023/05/05 07:46:07;;;;;;;12.38;6.63;;;15.70;99.90;;;15.60;59.87;100862.53;5073363;28;20046;-76
2023/05/05 07:48:33;;;;;;;10.13;5.95;;;15.70;99.90;;;15.61;59.45;100853.19;5078875;28;20032;-76
2023/05/05 07:50:59;;;;;;;14.15;5.85;;;15.80;99.90;;;15.90;60.84;100853.19;5067320;28;20094;-77
2023/05/05 07:53:25;;;;;;;10.43;6.18;;;15.90;99.90;;;16.03;61.45;100859.47;5072549;28;20063;-76
2023/05/05 07:55:51;;;;;;;9.70;6.28;;;16.00;99.90;;;16.14;60.06;100836.53;5086982;28;20052;-76
2023/05/05 07:58:17;;;;;;;10.52;6.10;;;16.20;99.90;;;16.48;59.74;100842.06;5083256;28;20042;-76
2023/05/05 08:00:42;;;;;;;10.98;6.03;;;16.40;99.90;;;16.92;59.06;100855.09;5071118;28;20068;-75
2023/05/05 08:03:08;;;;;;;11.25;6.13;;;16.60;99.90;;;17.10;57.15;100856.72;5072922;28;20475;-75
2023/05/05 08:05:34;;;;;;;13.40;6.40;;;16.90;99.90;;;17.36;55.98;100865.31;5073098;28;20085;-75
2023/05/05 08:08:00;;;;;;;12.02;6.20;;;17.00;99.90;;;17.32;55.04;100858.66;5070054;28;20488;-76
2023/05/05 08:10:26;;;;;;;10.30;5.93;;;17.20;99.90;;;17.53;55.35;100872.69;5070421;28;20046;-74
2023/05/05 08:12:53;;;;;;;9.32;5.50;;;17.30;99.90;;;17.57;54.65;100873.00;5065760;28;20041;-75
2023/05/05 08:15:19;;;;;;;11.63;6.35;;;17.40;99.90;;;17.77;53.71;100878.75;5067086;28;20033;-74
2023/05/05 08:17:54;;;;;;;9.60;6.10;;;17.50;99.60;;;17.91;52.84;100870.88;5072178;28;20095;-76
2023/05/05 08:20:21;;;;;;;12.63;5.80;;;17.70;99.20;;;18.21;54.11;100886.09;5069456;28;20060;-76
2023/05/05 08:22:47;;;;;;;11.07;5.50;;;17.80;99.90;;;18.39;51.94;100875.75;5074727;28;20036;-75
2023/05/05 08:25:13;;;;;;;8.63;5.72;;;18.00;98.80;;;18.71;51.04;100880.41;5072875;28;20032;-75
2023/05/05 08:27:41;;;;;;;11.52;5.63;;;18.30;97.80;;;19.13;50.08;100884.25;5076947;28;20055;-75
2023/05/05 08:30:08;;;;;;;12.07;6.18;;;18.80;97.20;;;18.93;48.92;100869.19;5065320;28;20042;-75
2023/05/05 08:32:34;;;;;;;11.60;6.35;;;19.00;95.50;;;18.93;49.90;100907.06;5048823;28;20049;-75
2023/05/05 08:35:02;;;;;;;11.13;5.90;;;19.00;95.50;;;18.60;49.86;100909.88;5080439;28;20032;-75
2023/05/05 08:37:28;;;;;;;;;;;18.80;94.90;;;18.96;50.36;100903.78;5086926;28;20048;-75
2023/05/05 08:39:56;;;;;;;9.93;5.75;;;18.90;95.50;;;19.40;46.89;100914.56;5076161;28;19923;-75
2023/05/05 08:42:22;;;;;;;9.77;5.88;;;19.10;93.60;;;19.67;47.21;100902.47;5072468;28;20041;-76
2023/05/05 08:44:48;;;;;;;11.50;5.85;;;19.50;93.40;;;20.31;44.87;100907.03;5072368;28;20036;-76
2023/05/05 08:47:15;;;;;;;10.18;5.70;;;19.90;91.60;;;20.43;44.10;100901.22;5072058;28;20044;-76
2023/05/05 08:49:45;;;;;;;14.07;6.18;;;;;;;20.70;44.89;100909.25;5080233;28;20617;-76
2023/05/05 08:52:21;;;;;;;8.93;5.35;;;;;;;20.60;44.60;100901.78;5076063;28;20063;-75
2023/05/05 08:54:59;;;;;;;12.15;5.65;;;20.10;90.50;;;20.67;45.12;100909.78;5075419;28;20028;-75
2023/05/05 08:57:40;;;;;;;10.73;5.57;;;20.50;90.40;;;20.70;44.85;100898.16;5081600;28;20517;-75
2023/05/05 09:00:08;;;;;;;10.38;6.07;;;20.70;90.10;;;20.84;44.69;100888.16;5085050;28;20078;-76
2023/05/05 09:02:36;;;;;;;10.82;5.75;;;;;;;21.20;43.91;100878.06;5090407;28;20121;-76
2023/05/05 09:05:04;;;;;;;9.70;5.13;;;;;;;21.00;44.85;100865.97;5079422;28;20071;-76
2023/05/05 09:07:31;;;;;;;10.38;6.20;;;20.80;89.90;;;20.77;45.90;100870.13;5046957;28;20094;-76
2023/05/05 09:09:59;;;;;;;12.40;5.88;;;21.00;89.40;;;20.44;46.37;100872.41;5085597;28;20037;-75
2023/05/05 09:12:29;;;;;;;9.93;5.93;;;20.60;89.20;;;20.91;45.28;100881.50;5086049;28;20488;-76
2023/05/05 09:14:55;;;;;;;10.00;5.85;;;20.80;88.90;;;20.96;44.26;100867.66;5079884;28;20118;-76
2023/05/05 09:17:25;;;;;;;10.35;5.45;;;20.90;87.70;;;21.03;44.43;100862.63;5084970;28;20036;-76
2023/05/05 09:20:06;;;;;;;9.30;5.68;;;21.00;87.80;;;21.32;43.77;100861.09;5082983;28;20041;-76
2023/05/05 09:22:38;;;;;;;10.52;6.07;;;21.30;86.30;;;21.54;43.30;100852.41;5092215;28;20130;-76
2023/05/05 09:25:10;;;;;;;14.15;6.45;;;21.40;85.80;;;21.45;43.79;100865.22;5083980;28;21424;-76
2023/05/05 09:27:40;;;;;;;9.75;5.80;;;21.50;85.80;;;21.37;43.64;100853.59;5073911;28;20040;-76
2023/05/05 09:30:07;;;;;;;10.38;5.90;;;;;;;21.84;44.43;100859.72;5076830;28;20054;-77
2023/05/05 09:32:42;;;;;;;;;;;;;;;21.98;42.25;100846.03;5083497;28;20396;-76
2023/05/05 09:35:08;;;;;;;10.00;6.05;;;21.50;85.30;;;21.82;42.17;100847.28;5078596;28;19971;-76
2023/05/05 09:37:34;;;;;;;11.88;6.15;;;;;;;22.39;43.04;100849.59;5058923;28;20048;-76
2023/05/05 09:40:01;;;;;;;9.40;6.03;;;21.90;82.90;;;22.02;41.51;100845.47;5083472;28;20124;-77
2023/05/05 09:42:27;;;;;;;12.43;6.22;;;22.10;82.60;;;21.47;42.60;100836.06;5078819;28;20032;-77
2023/05/05 09:44:53;;;;;;;10.30;6.63;;;21.70;82.30;;;20.79;43.79;100849.38;5090273;28;20036;-76
2023/05/05 09:47:19;;;;;;;10.20;5.85;;;21.10;83.50;;;20.39;44.25;100849.13;5073950;28;20548;-76
2023/05/05 09:49:57;;;;;;;13.23;6.07;;;20.60;84.30;;;19.96;46.02;100857.72;5078328;28;20049;-76
2023/05/05 09:52:23;;;;;;;12.83;6.13;;;20.10;86.90;;;20.12;46.76;100855.78;5078787;28;20043;-77
2023/05/05 09:54:56;;;;;;;9.88;6.10;;;20.10;89.10;;;20.24;46.41;100869.38;5085512;28;20118;-76
2023/05/05 09:57:32;;;;;;;14.05;6.20;;;20.20;88.10;;;20.52;46.08;100880.16;5090020;28;20062;-75
2023/05/05 10:00:00;;;;;;;11.27;6.18;;;20.30;87.20;;;20.75;45.84;100880.66;5078723;28;20167;-77
2023/05/05 10:02:38;;;;;;;;;;;20.60;88.30;;;20.83;44.59;100878.19;5082107;28;20072;-76
2023/05/05 10:05:08;;;;;;;11.25;6.85;;;20.70;86.40;;;20.93;44.83;100890.38;5084712;28;19942;-77
2023/05/05 10:07:35;;;;;;;11.15;6.13;;;20.90;85.40;;;21.27;44.05;100875.84;5075806;28;20505;-77
2023/05/05 10:10:08;;;;;;;9.05;6.10;;;21.20;85.20;;;21.38;43.00;100869.13;5074921;28;20083;-77
2023/05/05 10:12:38;;;;;;;11.13;6.63;;;;;;;21.66;43.00;100871.53;5075132;28;20032;-77
2023/05/05 10:15:06;;;;;;;11.35;6.40;;;;;;;21.89;42.97;100867.22;5063331;28;20125;-76
2023/05/05 10:17:36;;;;;;;11.88;6.28;;;;;;;21.86;42.72;100858.63;5073601;28;20116;-77
2023/05/05 10:20:03;;;;;;;12.18;6.70;;;21.40;82.60;;;22.40;42.50;100859.59;5072080;28;20032;-77
2023/05/05 10:22:34;;;;;;;11.63;6.70;;;;;;;23.12;40.18;100850.53;5063819;28;20186;-76